sensor_id;sensor_type;location;lat;lon;timestamp;pressure;altitude;pressure_sealevel;temperature;humidity
42289;BME280;30230;47.520;19.016;2022-10-24T00:01:55;99401.84;;;13.81;100.00
42289;BME280;30230;47.520;19.016;2022-10-24T00:03:56;99405.63;;;13.80;100.00
42289;BME280;30230;47.520;19.016;2022-10-24T00:05:57;99396.84;;;13.78;100.00
42289;BME280;30230;47.520;19.016;2022-10-24T00:07:57;99397.09;;;13.77;100.00
42289;BME280;30230;47.520;19.016;2022-10-24T00:09:57;99398.97;;;13.76;100.00
42289;BME280;30230;47.520;19.016;2022-10-24T00:11:57;99393.06;;;13.79;100.00
42289;BME280;30230;47.520;19.016;2022-10-24T00:13:58;99391.66;;;13.77;100.00
42289;BME280;30230;47.520;19.016;2022-10-24T00:15:58;99388.34;;;13.75;100.00
42289;BME280;30230;47.520;19.016;2022-10-24T00:17:58;99392.72;;;13.76;100.00
42289;BME280;30230;47.520;19.016;2022-10-24T00:19:59;99394.59;;;13.75;100.00
42289;BME280;30230;47.520;19.016;2022-10-24T00:21:59;99386.88;;;13.72;100.00
42289;BME280;30230;47.520;19.016;2022-10-24T00:24:00;99386.66;;;13.74;100.00
42289;BME280;30230;47.520;19.016;2022-10-24T00:26:00;99396.69;;;13.73;100.00
42289;BME280;30230;47.520;19.016;2022-10-24T00:28:00;99396.09;;;13.71;100.00
42289;BME280;30230;47.520;19.016;2022-10-24T00:30:02;99391.47;;;13.72;100.00
42289;BME280;30230;47.520;19.016;2022-10-24T00:32:03;99392.53;;;13.71;100.00
42289;BME280;30230;47.520;19.016;2022-10-24T00:34:03;99390.88;;;13.70;100.00
42289;BME280;30230;47.520;19.016;2022-10-24T00:36:04;99393.38;;;13.71;100.00
42289;BME280;30230;47.520;19.016;2022-10-24T00:38:04;99391.72;;;13.70;100.00
42289;BME280;30230;47.520;19.016;2022-10-24T00:40:04;99385.81;;;13.73;100.00
42289;BME280;30230;47.520;19.016;2022-10-24T00:42:05;99390.25;;;13.68;100.00
42289;BME280;30230;47.520;19.016;2022-10-24T00:46:12;99384.88;;;13.61;100.00
42289;BME280;30230;47.520;19.016;2022-10-24T00:48:18;99384.66;;;13.63;100.00
42289;BME280;30230;47.520;19.016;2022-10-24T00:50:19;99388.66;;;13.60;100.00
42289;BME280;30230;47.520;19.016;2022-10-24T00:52:21;99380.94;;;13.57;100.00
42289;BME280;30230;47.520;19.016;2022-10-24T00:54:23;99382.59;;;13.58;100.00
42289;BME280;30230;47.520;19.016;2022-10-24T00:56:24;99377.16;;;13.58;100.00
42289;BME280;30230;47.520;19.016;2022-10-24T00:58:27;99369.50;;;13.55;100.00
42289;BME280;30230;47.520;19.016;2022-10-24T01:00:31;99365.09;;;13.54;100.00
42289;BME280;30230;47.520;19.016;2022-10-24T01:02:32;99373.47;;;13.52;100.00
42289;BME280;30230;47.520;19.016;2022-10-24T01:04:32;99370.97;;;13.51;100.00
42289;BME280;30230;47.520;19.016;2022-10-24T01:13:13;99372.03;;;13.50;100.00
42289;BME280;30230;47.520;19.016;2022-10-24T01:17:34;99365.16;;;13.47;100.00
42289;BME280;30230;47.520;19.016;2022-10-24T01:21:40;99370.34;;;13.49;100.00
42289;BME280;30230;47.520;19.016;2022-10-24T01:31:56;99381.44;;;13.47;100.00
42289;BME280;30230;47.520;19.016;2022-10-24T01:34:00;99373.50;;;13.46;100.00
42289;BME280;30230;47.520;19.016;2022-10-24T01:36:09;99372.88;;;13.44;100.00
42289;BME280;30230;47.520;19.016;2022-10-24T01:38:13;99366.84;;;13.42;100.00
42289;BME280;30230;47.520;19.016;2022-10-24T01:40:17;99366.44;;;13.45;100.00
42289;BME280;30230;47.520;19.016;2022-10-24T01:42:20;99366.44;;;13.45;100.00
42289;BME280;30230;47.520;19.016;2022-10-24T01:44:23;99367.91;;;13.41;100.00
42289;BME280;30230;47.520;19.016;2022-10-24T01:46:25;99357.66;;;13.43;100.00
42289;BME280;30230;47.520;19.016;2022-10-24T01:48:27;99353.53;;;13.40;100.00
42289;BME280;30230;47.520;19.016;2022-10-24T01:50:29;99349.34;;;13.38;100.00
42289;BME280;30230;47.520;19.016;2022-10-24T01:52:32;99350.19;;;13.38;100.00
42289;BME280;30230;47.520;19.016;2022-10-24T01:54:35;99359.19;;;13.39;100.00
42289;BME280;30230;47.520;19.016;2022-10-24T01:56:36;99363.97;;;13.37;100.00
42289;BME280;30230;47.520;19.016;2022-10-24T01:58:36;99365.84;;;13.36;100.00
42289;BME280;30230;47.520;19.016;2022-10-24T02:00:37;99362.31;;;13.36;100.00
42289;BME280;30230;47.520;19.016;2022-10-24T02:02:38;99361.50;;;13.35;100.00
42289;BME280;30230;47.520;19.016;2022-10-24T02:04:53;99359.84;;;13.34;100.00
42289;BME280;30230;47.520;19.016;2022-10-24T02:06:55;99352.69;;;13.40;100.00
42289;BME280;30230;47.520;19.016;2022-10-24T02:08:57;99350.63;;;13.35;100.00
42289;BME280;30230;47.520;19.016;2022-10-24T02:10:59;99348.97;;;13.34;100.00
42289;BME280;30230;47.520;19.016;2022-10-24T02:13:12;99348.97;;;13.34;100.00
42289;BME280;30230;47.520;19.016;2022-10-24T02:15:13;99336.44;;;13.33;100.00
42289;BME280;30230;47.520;19.016;2022-10-24T02:17:16;99333.97;;;13.32;100.00
42289;BME280;30230;47.520;19.016;2022-10-24T02:19:17;99332.31;;;13.31;100.00
42289;BME280;30230;47.520;19.016;2022-10-24T02:21:23;99333.97;;;13.32;100.00
42289;BME280;30230;47.520;19.016;2022-10-24T02:24:12;99333.34;;;13.29;100.00
42289;BME280;30230;47.520;19.016;2022-10-24T02:25:51;99332.31;;;13.31;100.00
42289;BME280;30230;47.520;19.016;2022-10-24T02:28:39;99330.81;;;13.35;100.00
42289;BME280;30230;47.520;19.016;2022-10-24T02:30:18;99327.69;;;13.31;100.00
42289;BME280;30230;47.520;19.016;2022-10-24T02:32:26;99323.50;;;13.35;100.00
42289;BME280;30230;47.520;19.016;2022-10-24T02:34:28;99333.97;;;13.32;100.00
42289;BME280;30230;47.520;19.016;2022-10-24T02:36:29;99329.00;;;13.28;100.00
42289;BME280;30230;47.520;19.016;2022-10-24T02:38:38;99338.16;;;13.27;100.00
42289;BME280;30230;47.520;19.016;2022-10-24T02:40:40;99334.84;;;13.25;100.00
42289;BME280;30230;47.520;19.016;2022-10-24T02:42:43;99330.25;;;13.26;100.00
42289;BME280;30230;47.520;19.016;2022-10-24T02:44:44;99333.19;;;13.24;100.00
42289;BME280;30230;47.520;19.016;2022-10-24T02:46:47;99331.31;;;13.25;100.00
42289;BME280;30230;47.520;19.016;2022-10-24T02:48:50;99334.59;;;13.27;100.00
42289;BME280;30230;47.520;19.016;2022-10-24T02:50:52;99338.78;;;13.29;100.00
42289;BME280;30230;47.520;19.016;2022-10-24T02:52:52;99338.56;;;13.31;100.00
42289;BME280;30230;47.520;19.016;2022-10-24T02:54:52;99340.22;;;13.32;100.00
42289;BME280;30230;47.520;19.016;2022-10-24T02:56:54;99331.69;;;13.28;100.00
42289;BME280;30230;47.520;19.016;2022-10-24T02:58:56;99329.41;;;13.25;100.00
42289;BME280;30230;47.520;19.016;2022-10-24T03:00:57;99327.75;;;13.24;100.00
42289;BME280;30230;47.520;19.016;2022-10-24T03:02:57;99319.81;;;13.23;100.00
42289;BME280;30230;47.520;19.016;2022-10-24T03:04:57;99313.56;;;13.22;100.00
42289;BME280;30230;47.520;19.016;2022-10-24T03:06:58;99310.84;;;13.22;100.00
42289;BME280;30230;47.520;19.016;2022-10-24T03:08:58;99313.56;;;13.22;100.00
42289;BME280;30230;47.520;19.016;2022-10-24T03:10:58;99308.97;;;13.23;100.00
42289;BME280;30230;47.520;19.016;2022-10-24T03:12:58;99319.00;;;13.22;100.00
42289;BME280;30230;47.520;19.016;2022-10-24T03:14:59;99315.25;;;13.23;100.00
42289;BME280;30230;47.520;19.016;2022-10-24T03:17:00;99312.94;;;13.20;100.00
42289;BME280;30230;47.520;19.016;2022-10-24T03:19:00;99318.78;;;13.24;100.00
42289;BME280;30230;47.520;19.016;2022-10-24T03:21:00;99325.03;;;13.24;100.00
42289;BME280;30230;47.520;19.016;2022-10-24T03:23:00;99314.00;;;13.19;100.00
42289;BME280;30230;47.520;19.016;2022-10-24T03:25:01;99298.34;;;13.21;100.00
42289;BME280;30230;47.520;19.016;2022-10-24T03:27:02;99292.94;;;13.15;100.00
42289;BME280;30230;47.520;19.016;2022-10-24T03:29:03;99297.09;;;13.17;100.00
42289;BME280;30230;47.520;19.016;2022-10-24T03:31:03;99296.50;;;13.15;100.00
42289;BME280;30230;47.520;19.016;2022-10-24T03:33:04;99292.53;;;13.11;100.00
42289;BME280;30230;47.520;19.016;2022-10-24T03:35:04;99297.38;;;13.09;100.00
42289;BME280;30230;47.520;19.016;2022-10-24T03:37:05;99309.03;;;13.10;100.00
42289;BME280;30230;47.520;19.016;2022-10-24T03:39:05;99310.94;;;13.09;100.00
42289;BME280;30230;47.520;19.016;2022-10-24T03:41:05;99304.69;;;13.09;100.00
42289;BME280;30230;47.520;19.016;2022-10-24T03:43:05;99303.00;;;13.08;100.00
42289;BME280;30230;47.520;19.016;2022-10-24T03:45:06;99310.69;;;13.11;100.00
42289;BME280;30230;47.520;19.016;2022-10-24T03:47:07;99306.09;;;13.11;100.00
42289;BME280;30230;47.520;19.016;2022-10-24T03:49:07;99307.56;;;13.14;100.00
42289;BME280;30230;47.520;19.016;2022-10-24T03:51:07;99299.44;;;13.14;100.00
42289;BME280;30230;47.520;19.016;2022-10-24T03:53:08;99299.84;;;13.11;100.00
42289;BME280;30230;47.520;19.016;2022-10-24T03:55:08;99301.97;;;13.09;100.00
42289;BME280;30230;47.520;19.016;2022-10-24T03:57:08;99305.09;;;13.06;100.00
42289;BME280;30230;47.520;19.016;2022-10-24T03:59:09;99310.47;;;13.12;100.00
42289;BME280;30230;47.520;19.016;2022-10-24T04:01:09;99312.00;;;13.08;100.00
42289;BME280;30230;47.520;19.016;2022-10-24T04:03:16;99314.91;;;13.07;100.00
42289;BME280;30230;47.520;19.016;2022-10-24T04:05:16;99317.00;;;13.04;100.00
42289;BME280;30230;47.520;19.016;2022-10-24T04:07:16;99322.44;;;13.04;100.00
42289;BME280;30230;47.520;19.016;2022-10-24T04:09:17;99319.25;;;13.08;100.00
42289;BME280;30230;47.520;19.016;2022-10-24T04:11:17;99327.63;;;13.06;100.00
42289;BME280;30230;47.520;19.016;2022-10-24T04:13:18;99318.88;;;13.04;100.00
42289;BME280;30230;47.520;19.016;2022-10-24T04:15:18;99318.25;;;13.02;100.00
42289;BME280;30230;47.520;19.016;2022-10-24T04:17:18;99321.81;;;13.02;100.00
42289;BME280;30230;47.520;19.016;2022-10-24T04:19:19;99321.59;;;13.04;100.00
42289;BME280;30230;47.520;19.016;2022-10-24T04:21:19;99332.69;;;13.02;100.00
42289;BME280;30230;47.520;19.016;2022-10-24T04:23:19;99337.25;;;13.02;100.00
42289;BME280;30230;47.520;19.016;2022-10-24T04:25:19;99331.44;;;12.98;100.00
42289;BME280;30230;47.520;19.016;2022-10-24T04:27:20;99329.97;;;12.96;100.00
42289;BME280;30230;47.520;19.016;2022-10-24T04:29:20;99328.94;;;12.97;100.00
42289;BME280;30230;47.520;19.016;2022-10-24T04:31:20;99319.78;;;12.98;100.00
42289;BME280;30230;47.520;19.016;2022-10-24T04:33:20;99314.94;;;13.00;100.00
42289;BME280;30230;47.520;19.016;2022-10-24T04:35:21;99312.00;;;13.01;100.00
42289;BME280;30230;47.520;19.016;2022-10-24T04:37:21;99312.22;;;13.00;100.00
42289;BME280;30230;47.520;19.016;2022-10-24T04:39:22;99317.06;;;12.98;100.00
42289;BME280;30230;47.520;19.016;2022-10-24T04:41:22;99316.84;;;12.99;100.00
42289;BME280;30230;47.520;19.016;2022-10-24T04:43:22;99310.81;;;12.97;100.00
42289;BME280;30230;47.520;19.016;2022-10-24T04:45:23;99310.41;;;12.94;100.00
42289;BME280;30230;47.520;19.016;2022-10-24T04:47:23;99308.75;;;12.93;100.00
42289;BME280;30230;47.520;19.016;2022-10-24T04:49:24;99309.56;;;12.93;100.00
42289;BME280;30230;47.520;19.016;2022-10-24T04:51:24;99304.56;;;12.90;100.00
42289;BME280;30230;47.520;19.016;2022-10-24T04:53:24;99297.25;;;12.97;100.00
42289;BME280;30230;47.520;19.016;2022-10-24T04:55:25;99297.66;;;12.94;100.00
42289;BME280;30230;47.520;19.016;2022-10-24T04:57:25;99305.41;;;12.91;100.00
42289;BME280;30230;47.520;19.016;2022-10-24T04:59:25;99303.53;;;12.91;100.00
42289;BME280;30230;47.520;19.016;2022-10-24T05:01:26;99291.66;;;12.86;100.00
42289;BME280;30230;47.520;19.016;2022-10-24T05:03:26;99297.28;;;12.91;100.00
42289;BME280;30230;47.520;19.016;2022-10-24T05:05:26;99289.13;;;12.91;100.00
42289;BME280;30230;47.520;19.016;2022-10-24T05:07:27;99294.38;;;12.92;100.00
42289;BME280;30230;47.520;19.016;2022-10-24T05:09:27;99291.84;;;12.91;100.00
42289;BME280;30230;47.520;19.016;2022-10-24T05:11:27;99295.63;;;13.21;100.00
42289;BME280;30230;47.520;19.016;2022-10-24T05:13:27;99298.84;;;13.37;100.00
42289;BME280;30230;47.520;19.016;2022-10-24T05:15:28;99303.97;;;13.20;100.00
42289;BME280;30230;47.520;19.016;2022-10-24T05:17:29;99314.88;;;13.13;100.00
42289;BME280;30230;47.520;19.016;2022-10-24T05:19:29;99317.59;;;13.07;100.00
42289;BME280;30230;47.520;19.016;2022-10-24T05:21:29;99334.97;;;12.99;100.00
42289;BME280;30230;47.520;19.016;2022-10-24T05:23:29;99335.22;;;12.97;100.00
42289;BME280;30230;47.520;19.016;2022-10-24T05:25:30;99339.81;;;12.90;100.00
42289;BME280;30230;47.520;19.016;2022-10-24T05:27:30;99346.28;;;12.89;100.00
42289;BME280;30230;47.520;19.016;2022-10-24T05:29:30;99333.56;;;12.90;100.00
42289;BME280;30230;47.520;19.016;2022-10-24T05:31:30;99334.63;;;12.89;100.00
42289;BME280;30230;47.520;19.016;2022-10-24T05:33:31;99338.19;;;12.83;100.00
42289;BME280;30230;47.520;19.016;2022-10-24T05:35:31;99334.84;;;12.81;100.00
42289;BME280;30230;47.520;19.016;2022-10-24T05:37:31;99336.75;;;12.80;100.00
42289;BME280;30230;47.520;19.016;2022-10-24T05:39:31;99340.72;;;12.77;100.00
42289;BME280;30230;47.520;19.016;2022-10-24T05:41:32;99345.50;;;12.75;100.00
42289;BME280;30230;47.520;19.016;2022-10-24T05:43:32;99347.41;;;12.75;100.00
42289;BME280;30230;47.520;19.016;2022-10-24T05:45:32;99347.16;;;12.83;100.00
42289;BME280;30230;47.520;19.016;2022-10-24T05:47:33;99353.84;;;12.81;100.00
42289;BME280;30230;47.520;19.016;2022-10-24T05:49:33;99349.03;;;12.83;100.00
42289;BME280;30230;47.520;19.016;2022-10-24T05:51:33;99349.88;;;12.83;100.00
42289;BME280;30230;47.520;19.016;2022-10-24T05:53:33;99353.84;;;12.81;100.00
42289;BME280;30230;47.520;19.016;2022-10-24T05:55:34;99361.78;;;12.75;100.00
42289;BME280;30230;47.520;19.016;2022-10-24T05:57:35;99362.22;;;12.72;100.00
42289;BME280;30230;47.520;19.016;2022-10-24T05:59:35;99358.06;;;12.70;100.00
42289;BME280;30230;47.520;19.016;2022-10-24T06:01:35;99356.16;;;12.70;100.00
42289;BME280;30230;47.520;19.016;2022-10-24T06:03:36;99364.22;;;12.90;100.00
42289;BME280;30230;47.520;19.016;2022-10-24T06:05:36;99374.47;;;12.88;100.00
42289;BME280;30230;47.520;19.016;2022-10-24T06:07:36;99379.78;;;13.01;100.00
42289;BME280;30230;47.520;19.016;2022-10-24T06:09:38;99374.63;;;12.93;100.00
42289;BME280;30230;47.520;19.016;2022-10-24T06:11:38;99379.97;;;13.13;100.00
42289;BME280;30230;47.520;19.016;2022-10-24T06:13:38;99378.47;;;13.49;100.00
42289;BME280;30230;47.520;19.016;2022-10-24T06:15:42;99380.25;;;13.37;100.00
42289;BME280;30230;47.520;19.016;2022-10-24T06:17:42;99382.84;;;13.18;100.00
42289;BME280;30230;47.520;19.016;2022-10-24T06:19:43;99381.63;;;13.08;100.00
42289;BME280;30230;47.520;19.016;2022-10-24T06:21:43;99381.63;;;13.08;100.00
42289;BME280;30230;47.520;19.016;2022-10-24T06:23:44;99384.19;;;13.02;100.00
42289;BME280;30230;47.520;19.016;2022-10-24T06:25:44;99386.72;;;12.91;100.00
42289;BME280;30230;47.520;19.016;2022-10-24T06:27:45;99375.69;;;12.86;100.00
42289;BME280;30230;47.520;19.016;2022-10-24T06:29:45;99373.81;;;12.93;100.00
42289;BME280;30230;47.520;19.016;2022-10-24T06:31:45;99374.84;;;12.92;100.00
42289;BME280;30230;47.520;19.016;2022-10-24T06:33:46;99380.53;;;12.84;100.00
42289;BME280;30230;47.520;19.016;2022-10-24T06:35:46;99375.97;;;12.77;100.00
42289;BME280;30230;47.520;19.016;2022-10-24T06:37:46;99376.78;;;12.78;100.00
42289;BME280;30230;47.520;19.016;2022-10-24T06:39:46;99369.63;;;12.90;100.00
42289;BME280;30230;47.520;19.016;2022-10-24T06:41:47;99372.38;;;12.84;100.00
42289;BME280;30230;47.520;19.016;2022-10-24T06:43:47;99368.25;;;12.74;100.00
42289;BME280;30230;47.520;19.016;2022-10-24T06:45:48;99364.31;;;12.70;100.00
42289;BME280;30230;47.520;19.016;2022-10-24T06:47:49;99360.56;;;12.65;100.00
42289;BME280;30230;47.520;19.016;2022-10-24T06:49:50;99353.84;;;12.81;100.00
42289;BME280;30230;47.520;19.016;2022-10-24T06:51:50;99360.50;;;12.85;100.00
42289;BME280;30230;47.520;19.016;2022-10-24T06:53:50;99354.28;;;12.71;100.00
42289;BME280;30230;47.520;19.016;2022-10-24T06:55:50;99348.50;;;12.67;100.00
42289;BME280;30230;47.520;19.016;2022-10-24T06:57:51;99345.97;;;12.72;100.00
42289;BME280;30230;47.520;19.016;2022-10-24T06:59:52;99339.31;;;12.68;100.00
42289;BME280;30230;47.520;19.016;2022-10-24T07:01:52;99348.91;;;12.64;100.00
42289;BME280;30230;47.520;19.016;2022-10-24T07:03:53;99346.78;;;12.73;100.00
42289;BME280;30230;47.520;19.016;2022-10-24T07:05:53;99354.69;;;12.74;100.00
42289;BME280;30230;47.520;19.016;2022-10-24T07:07:53;99355.97;;;12.65;100.00
42289;BME280;30230;47.520;19.016;2022-10-24T07:09:54;99351.75;;;12.76;100.00
42289;BME280;30230;47.520;19.016;2022-10-24T07:11:55;99355.16;;;12.65;100.00
42289;BME280;30230;47.520;19.016;2022-10-24T07:13:56;99367.44;;;12.74;100.00
42289;BME280;30230;47.520;19.016;2022-10-24T07:15:56;99377.88;;;12.64;100.00
42289;BME280;30230;47.520;19.016;2022-10-24T07:17:56;99388.69;;;12.70;100.00
42289;BME280;30230;47.520;19.016;2022-10-24T07:19:56;99387.28;;;12.61;100.00
42289;BME280;30230;47.520;19.016;2022-10-24T07:21:57;99398.13;;;12.61;100.00
42289;BME280;30230;47.520;19.016;2022-10-24T07:23:58;99394.38;;;12.56;100.00
42289;BME280;30230;47.520;19.016;2022-10-24T07:26:02;99402.50;;;12.56;100.00
42289;BME280;30230;47.520;19.016;2022-10-24T07:28:03;99407.72;;;12.57;100.00
42289;BME280;30230;47.520;19.016;2022-10-24T07:30:04;99416.72;;;12.51;100.00
42289;BME280;30230;47.520;19.016;2022-10-24T07:32:04;99406.91;;;12.57;100.00
42289;BME280;30230;47.520;19.016;2022-10-24T07:34:05;99414.81;;;12.58;100.00
42289;BME280;30230;47.520;19.016;2022-10-24T07:36:06;99398.56;;;12.51;100.00
42289;BME280;30230;47.520;19.016;2022-10-24T07:38:09;99391.91;;;12.47;100.00
42289;BME280;30230;47.520;19.016;2022-10-24T07:40:12;99382.31;;;12.51;100.00
42289;BME280;30230;47.520;19.016;2022-10-24T07:42:13;99380.41;;;12.59;100.00
42289;BME280;30230;47.520;19.016;2022-10-24T07:44:13;99379.59;;;12.45;100.00
42289;BME280;30230;47.520;19.016;2022-10-24T07:46:15;99386.72;;;12.46;100.00
42289;BME280;30230;47.520;19.016;2022-10-24T07:48:16;99391.94;;;12.41;100.00
42289;BME280;30230;47.520;19.016;2022-10-24T07:50:16;99391.28;;;12.39;100.00
42289;BME280;30230;47.520;19.016;2022-10-24T07:52:16;99385.69;;;12.34;100.00
42289;BME280;30230;47.520;19.016;2022-10-24T07:54:17;99391.50;;;12.44;100.00
42289;BME280;30230;47.520;19.016;2022-10-24T07:56:17;99387.13;;;12.43;100.00
42289;BME280;30230;47.520;19.016;2022-10-24T07:58:17;99394.03;;;12.32;100.00
42289;BME280;30230;47.520;19.016;2022-10-24T08:00:17;99403.63;;;12.28;100.00
42289;BME280;30230;47.520;19.016;2022-10-24T08:02:18;99401.13;;;12.27;100.00
42289;BME280;30230;47.520;19.016;2022-10-24T08:04:18;99405.91;;;12.24;100.00
42289;BME280;30230;47.520;19.016;2022-10-24T08:06:20;99401.94;;;12.34;100.00
42289;BME280;30230;47.520;19.016;2022-10-24T08:08:21;99394.56;;;12.67;100.00
42289;BME280;30230;47.520;19.016;2022-10-24T08:10:21;99391.06;;;12.54;100.00
42289;BME280;30230;47.520;19.016;2022-10-24T08:12:22;99395.25;;;12.43;100.00
42289;BME280;30230;47.520;19.016;2022-10-24T08:14:22;99396.09;;;12.37;100.00
42289;BME280;30230;47.520;19.016;2022-10-24T08:16:22;99394.44;;;12.36;100.00
42289;BME280;30230;47.520;19.016;2022-10-24T08:18:23;99395.47;;;12.35;100.00
42289;BME280;30230;47.520;19.016;2022-10-24T08:20:23;99384.44;;;12.36;100.00
42289;BME280;30230;47.520;19.016;2022-10-24T08:22:25;99388.16;;;12.35;100.00
42289;BME280;30230;47.520;19.016;2022-10-24T08:24:25;99380.28;;;12.34;100.00
42289;BME280;30230;47.520;19.016;2022-10-24T08:26:26;99388.63;;;12.32;100.00
42289;BME280;30230;47.520;19.016;2022-10-24T08:28:26;99394.88;;;12.33;100.00
42289;BME280;30230;47.520;19.016;2022-10-24T08:30:26;99386.31;;;12.36;100.00
42289;BME280;30230;47.520;19.016;2022-10-24T08:32:27;99384.03;;;12.33;100.00
42289;BME280;30230;47.520;19.016;2022-10-24T08:34:27;99375.28;;;12.31;100.00
42289;BME280;30230;47.520;19.016;2022-10-24T08:36:28;99361.13;;;12.29;100.00
42289;BME280;30230;47.520;19.016;2022-10-24T08:38:29;99362.78;;;12.30;100.00
42289;BME280;30230;47.520;19.016;2022-10-24T08:40:29;99369.03;;;12.30;100.00
42289;BME280;30230;47.520;19.016;2022-10-24T08:42:31;99369.84;;;12.37;100.00
42289;BME280;30230;47.520;19.016;2022-10-24T08:44:36;99358.19;;;12.37;100.00
42289;BME280;30230;47.520;19.016;2022-10-24T08:49:38;99360.25;;;12.41;100.00
42289;BME280;30230;47.520;19.016;2022-10-24T08:51:24;99344.84;;;12.42;100.00
42289;BME280;30230;47.520;19.016;2022-10-24T08:53:28;99346.50;;;12.43;100.00
42289;BME280;30230;47.520;19.016;2022-10-24T08:55:42;99341.69;;;12.45;100.00
42289;BME280;30230;47.520;19.016;2022-10-24T08:57:43;99338.56;;;12.48;100.00
42289;BME280;30230;47.520;19.016;2022-10-24T08:59:45;99330.00;;;12.51;100.00
42289;BME280;30230;47.520;19.016;2022-10-24T09:01:47;99331.03;;;12.57;100.00
42289;BME280;30230;47.520;19.016;2022-10-24T09:03:50;99337.47;;;12.62;100.00
42289;BME280;30230;47.520;19.016;2022-10-24T09:05:55;99343.94;;;12.61;100.00
42289;BME280;30230;47.520;19.016;2022-10-24T09:07:58;99358.69;;;12.65;100.00
42289;BME280;30230;47.520;19.016;2022-10-24T09:10:19;99356.84;;;12.59;100.00
42289;BME280;30230;47.520;19.016;2022-10-24T09:12:21;99362.06;;;12.54;100.00
42289;BME280;30230;47.520;19.016;2022-10-24T09:14:26;99360.22;;;12.48;100.00
42289;BME280;30230;47.520;19.016;2022-10-24T09:16:26;99363.53;;;12.50;100.00
42289;BME280;30230;47.520;19.016;2022-10-24T09:20:28;99357.09;;;12.51;100.00
42289;BME280;30230;47.520;19.016;2022-10-24T09:22:31;99363.13;;;12.53;100.00
42289;BME280;30230;47.520;19.016;2022-10-24T09:24:43;99366.88;;;12.52;100.00
42289;BME280;30230;47.520;19.016;2022-10-24T09:26:45;99370.84;;;12.56;100.00
42289;BME280;30230;47.520;19.016;2022-10-24T09:28:45;99371.44;;;12.58;100.00
42289;BME280;30230;47.520;19.016;2022-10-24T09:30:45;99368.97;;;12.57;100.00
42289;BME280;30230;47.520;19.016;2022-10-24T09:32:46;99370.63;;;12.58;100.00
42289;BME280;30230;47.520;19.016;2022-10-24T09:34:47;99367.69;;;12.59;100.00
42289;BME280;30230;47.520;19.016;2022-10-24T09:36:47;99370.16;;;12.61;100.00
42289;BME280;30230;47.520;19.016;2022-10-24T09:38:47;99374.75;;;12.60;100.00
42289;BME280;30230;47.520;19.016;2022-10-24T09:40:51;99381.88;;;12.61;100.00
42289;BME280;30230;47.520;19.016;2022-10-24T09:42:53;99392.53;;;12.56;100.00
42289;BME280;30230;47.520;19.016;2022-10-24T09:44:54;99393.53;;;12.55;100.00
42289;BME280;30230;47.520;19.016;2022-10-24T09:46:56;99394.19;;;12.57;100.00
42289;BME280;30230;47.520;19.016;2022-10-24T09:48:57;99396.22;;;12.68;100.00
42289;BME280;30230;47.520;19.016;2022-10-24T09:50:58;99394.75;;;12.66;100.00
42289;BME280;30230;47.520;19.016;2022-10-24T09:52:59;99394.75;;;12.72;100.00
42289;BME280;30230;47.520;19.016;2022-10-24T10:01:25;99378.53;;;12.59;100.00
42289;BME280;30230;47.520;19.016;2022-10-24T10:03:25;99380.56;;;12.70;100.00
42289;BME280;30230;47.520;19.016;2022-10-24T10:07:43;99383.50;;;12.69;100.00
42289;BME280;30230;47.520;19.016;2022-10-24T10:09:49;99381.59;;;12.76;100.00
42289;BME280;30230;47.520;19.016;2022-10-24T10:11:56;99390.91;;;12.87;100.00
42289;BME280;30230;47.520;19.016;2022-10-24T10:13:58;99377.41;;;12.80;100.00
42289;BME280;30230;47.520;19.016;2022-10-24T10:16:00;99376.16;;;12.76;100.00
42289;BME280;30230;47.520;19.016;2022-10-24T10:18:03;99370.72;;;12.83;100.00
42289;BME280;30230;47.520;19.016;2022-10-24T10:20:04;99372.81;;;12.81;100.00
42289;BME280;30230;47.520;19.016;2022-10-24T10:22:08;99362.56;;;12.89;100.00
42289;BME280;30230;47.520;19.016;2022-10-24T10:24:24;99365.09;;;12.84;100.00
42289;BME280;30230;47.520;19.016;2022-10-24T10:26:28;99359.44;;;12.86;100.00
42289;BME280;30230;47.520;19.016;2022-10-24T10:28:28;99365.50;;;12.88;100.00
42289;BME280;30230;47.520;19.016;2022-10-24T10:30:29;99369.22;;;12.87;100.00
42289;BME280;30230;47.520;19.016;2022-10-24T10:32:32;99362.56;;;12.89;100.00
42289;BME280;30230;47.520;19.016;2022-10-24T10:34:40;99362.56;;;12.89;100.00
42289;BME280;30230;47.520;19.016;2022-10-24T10:45:35;99357.91;;;13.03;100.00
42289;BME280;30230;47.520;19.016;2022-10-24T10:49:40;99347.94;;;12.90;100.00
42289;BME280;30230;47.520;19.016;2022-10-24T10:53:47;99345.09;;;13.23;100.00
42289;BME280;30230;47.520;19.016;2022-10-24T10:59:57;99338.16;;;13.27;100.00
42289;BME280;30230;47.520;19.016;2022-10-24T11:02:07;99327.94;;;13.29;100.00
42289;BME280;30230;47.520;19.016;2022-10-24T11:10:39;99318.78;;;13.49;100.00
42289;BME280;30230;47.520;19.016;2022-10-24T11:12:42;99333.63;;;13.46;100.00
42289;BME280;30230;47.520;19.016;2022-10-24T11:14:47;99328.94;;;13.35;100.00
42289;BME280;30230;47.520;19.016;2022-10-24T11:16:51;99329.34;;;13.32;100.00
42289;BME280;30230;47.520;19.016;2022-10-24T11:18:54;99333.53;;;13.35;100.00
42289;BME280;30230;47.520;19.016;2022-10-24T11:23:03;99328.09;;;13.35;100.00
42289;BME280;30230;47.520;19.016;2022-10-24T11:25:08;99331.88;;;13.34;100.00
42289;BME280;30230;47.520;19.016;2022-10-24T11:27:17;99332.91;;;13.33;100.00
42289;BME280;30230;47.520;19.016;2022-10-24T11:31:26;99335.19;;;13.36;100.00